createdAt,value
2019-06-20T00:01:00.217Z,57.58
2019-06-20T00:03:30.693Z,57.58
2019-06-20T00:05:59.966Z,57.81
2019-06-20T00:08:29.434Z,57.58
2019-06-20T00:10:58.722Z,57.64
2019-06-20T00:13:27.985Z,58.17
2019-06-20T00:15:57.366Z,57.79
2019-06-20T00:18:26.641Z,58.14
2019-06-20T00:20:56.348Z,58.21
2019-06-20T00:23:25.801Z,57.20
2019-06-20T00:25:55.065Z,57.29
2019-06-20T00:28:24.353Z,58.15
2019-06-20T00:30:55.421Z,56.45
2019-06-20T00:33:24.737Z,55.43
2019-06-20T00:35:54.005Z,54.60
2019-06-20T00:38:23.332Z,54.50
2019-06-20T00:40:52.671Z,54.67
2019-06-20T00:43:21.938Z,53.53
2019-06-20T00:45:51.239Z,54.25
2019-06-20T00:48:20.519Z,54.97
2019-06-20T00:50:49.799Z,55.24
2019-06-20T00:53:19.102Z,56.23
2019-06-20T00:55:48.427Z,59.76
2019-06-20T00:58:17.739Z,68.43
2019-06-20T01:00:47.060Z,68.98
2019-06-20T01:03:16.374Z,69.02
2019-06-20T01:05:45.644Z,72.84
2019-06-20T01:08:15.960Z,68.08
2019-06-20T01:10:45.262Z,67.33
2019-06-20T01:13:14.562Z,64.79
2019-06-20T01:15:43.946Z,64.83
2019-06-20T01:18:13.358Z,65.77
2019-06-20T01:20:42.677Z,66.61
2019-06-20T01:23:11.936Z,66.38
2019-06-20T01:25:42.890Z,68.20
2019-06-20T01:28:12.210Z,72.05
2019-06-20T01:30:41.723Z,74.82
2019-06-20T01:33:11.048Z,76.02
2019-06-20T01:35:40.353Z,75.98
2019-06-20T01:38:09.652Z,75.82
2019-06-20T01:40:38.960Z,77.40
2019-06-20T01:43:15.758Z,78.43
2019-06-20T01:45:43.898Z,78.25
2019-06-20T01:48:13.222Z,79.53
2019-06-20T01:50:43.685Z,77.77
2019-06-20T01:53:12.997Z,79.07
2019-06-20T01:55:42.965Z,79.60
2019-06-20T01:58:12.270Z,80.69
2019-06-20T02:00:51.577Z,80.69
2019-06-20T02:03:21.860Z,80.23
2019-06-20T02:05:51.376Z,80.00
2019-06-20T02:08:20.675Z,80.81
2019-06-20T02:10:50.815Z,82.48
2019-06-20T02:13:20.151Z,83.35
2019-06-20T02:15:49.433Z,83.47
2019-06-20T02:18:18.727Z,84.62
2019-06-20T02:20:52.536Z,84.52
2019-06-20T02:23:22.429Z,84.88
2019-06-20T02:25:52.062Z,85.68
2019-06-20T02:28:21.930Z,87.55
2019-06-20T02:30:51.403Z,87.55
2019-06-20T02:33:20.703Z,89.21
2019-06-20T02:35:50.011Z,89.78
2019-06-20T02:38:19.303Z,90.21
2019-06-20T02:40:48.601Z,90.79
2019-06-20T02:43:17.902Z,89.98
2019-06-20T02:45:47.177Z,89.71
2019-06-20T02:48:16.605Z,88.68
2019-06-20T02:50:45.886Z,89.88
2019-06-20T02:53:15.184Z,90.68
2019-06-20T02:55:44.489Z,90.68
2019-06-20T02:58:13.742Z,89.87
2019-06-20T03:01:01.065Z,88.86
2019-06-20T03:03:30.458Z,89.94
2019-06-20T03:06:02.025Z,89.94
2019-06-20T03:08:31.483Z,90.57
2019-06-20T03:11:00.786Z,88.68
2019-06-20T03:13:30.069Z,89.19
2019-06-20T03:15:59.366Z,89.28
2019-06-20T03:18:28.624Z,89.41
2019-06-20T03:20:58.124Z,89.15
2019-06-20T03:23:27.610Z,89.22
2019-06-20T03:25:57.933Z,89.66
2019-06-20T03:28:27.225Z,88.96
2019-06-20T03:30:56.860Z,89.25
2019-06-20T03:33:26.158Z,90.05
2019-06-20T03:35:55.461Z,88.81
2019-06-20T03:38:24.763Z,85.99
2019-06-20T03:40:54.104Z,85.10
2019-06-20T03:43:23.632Z,86.94
2019-06-20T03:45:53.423Z,87.65
2019-06-20T03:48:23.829Z,86.93
2019-06-20T03:50:53.166Z,86.72
2019-06-20T03:53:23.569Z,87.60
2019-06-20T03:55:52.872Z,87.93
2019-06-20T03:58:22.164Z,87.59
2019-06-20T04:00:51.472Z,87.39
2019-06-20T04:03:21.899Z,87.40
2019-06-20T04:05:51.221Z,87.81
2019-06-20T04:08:20.561Z,87.66
2019-06-20T04:10:49.930Z,88.68
2019-06-20T04:13:20.433Z,87.96
2019-06-20T04:15:51.189Z,85.67
2019-06-20T04:18:20.486Z,84.89
2019-06-20T04:20:51.573Z,85.22
2019-06-20T04:23:20.867Z,86.29
2019-06-20T04:25:50.161Z,86.06
2019-06-20T04:28:19.505Z,88.26
2019-06-20T04:30:48.808Z,87.76
2019-06-20T04:33:18.060Z,85.44
2019-06-20T04:35:47.456Z,84.21
2019-06-20T04:38:16.782Z,85.96
2019-06-20T04:40:46.081Z,86.68
2019-06-20T04:43:15.621Z,83.55
2019-06-20T04:45:59.928Z,83.46
2019-06-20T04:48:29.267Z,82.24
2019-06-20T04:50:58.574Z,83.13
2019-06-20T04:53:27.851Z,84.73
2019-06-20T04:55:57.166Z,80.42
2019-06-20T04:58:26.438Z,81.99
2019-06-20T05:00:57.069Z,82.25
2019-06-20T05:03:27.903Z,81.22
2019-06-20T05:05:57.192Z,84.36
2019-06-20T05:08:28.790Z,84.27
2019-06-20T05:10:58.155Z,84.67
2019-06-20T05:13:27.450Z,84.09
2019-06-20T05:15:56.942Z,82.21
2019-06-20T05:18:26.324Z,79.64
2019-06-20T05:20:55.640Z,78.04
2019-06-20T05:23:24.961Z,79.81
2019-06-20T05:25:54.307Z,77.21
2019-06-20T05:28:23.667Z,77.84
2019-06-20T05:30:52.936Z,75.26
2019-06-20T05:33:23.295Z,75.67
2019-06-20T05:35:52.602Z,76.38
2019-06-20T05:38:23.482Z,78.21
2019-06-20T05:40:53.961Z,78.21
2019-06-20T05:43:23.295Z,72.83
2019-06-20T05:46:07.998Z,75.99
2019-06-20T05:48:24.012Z,74.80
2019-06-20T05:50:53.340Z,74.94
2019-06-20T05:53:22.623Z,77.60
2019-06-20T05:55:51.949Z,76.66
2019-06-20T05:58:21.292Z,75.59
2019-06-20T06:00:50.574Z,74.31
2019-06-20T06:03:21.020Z,75.65
2019-06-20T06:05:50.328Z,74.91
2019-06-20T06:08:19.773Z,72.78
2019-06-20T06:10:49.094Z,74.27
2019-06-20T06:13:18.413Z,73.40
2019-06-20T06:15:47.717Z,72.26
2019-06-20T06:18:17.009Z,73.20
2019-06-20T06:20:46.357Z,71.18
2019-06-20T06:23:15.641Z,70.70
2019-06-20T06:25:46.597Z,69.07
2019-06-20T06:28:15.911Z,68.32
2019-06-20T06:30:50.779Z,68.67
2019-06-20T06:33:20.447Z,66.75
2019-06-20T06:35:49.724Z,65.77
2019-06-20T06:38:22.045Z,67.08
2019-06-20T06:40:50.486Z,68.90
2019-06-20T06:43:19.783Z,67.77
2019-06-20T06:45:49.058Z,68.45
2019-06-20T06:48:18.398Z,68.96
2019-06-20T06:50:47.660Z,69.26
2019-06-20T06:53:16.970Z,69.27
2019-06-20T06:55:46.239Z,70.28
2019-06-20T06:58:17.007Z,71.29
2019-06-20T07:00:46.279Z,71.66
2019-06-20T07:03:15.571Z,70.67
2019-06-20T07:05:44.884Z,70.50
2019-06-20T07:08:15.958Z,72.12
2019-06-20T07:10:45.454Z,74.03
2019-06-20T07:13:14.752Z,74.60
2019-06-20T07:15:44.132Z,75.29
2019-06-20T07:18:13.452Z,75.29
2019-06-20T07:20:42.757Z,75.17
2019-06-20T07:23:12.071Z,75.98
2019-06-20T07:25:41.418Z,72.88
2019-06-20T07:28:12.201Z,74.17
2019-06-20T07:30:41.488Z,75.20
2019-06-20T07:33:12.624Z,75.41
2019-06-20T07:35:44.125Z,74.69
2019-06-20T07:38:15.969Z,78.98
2019-06-20T07:40:46.913Z,75.07
2019-06-20T07:43:16.185Z,73.01
2019-06-20T07:46:01.540Z,73.26
2019-06-20T07:48:17.617Z,73.77
2019-06-20T07:50:47.488Z,70.44
2019-06-20T07:53:17.829Z,66.73
2019-06-20T07:55:47.103Z,60.87
2019-06-20T07:58:17.721Z,61.04
2019-06-20T08:00:47.085Z,59.36
2019-06-20T08:03:16.379Z,61.11
2019-06-20T08:05:45.727Z,62.16
2019-06-20T08:08:15.029Z,61.35
2019-06-20T08:10:44.336Z,62.38
2019-06-20T08:13:13.690Z,62.84
2019-06-20T08:15:44.212Z,61.73
2019-06-20T08:18:13.521Z,62.22
2019-06-20T08:20:42.790Z,56.70
2019-06-20T08:23:12.194Z,52.05
2019-06-20T08:25:41.481Z,49.00
2019-06-20T08:28:10.809Z,46.89
2019-06-20T08:30:41.564Z,44.65
2019-06-20T08:33:13.163Z,45.72
2019-06-20T08:35:42.548Z,40.76
2019-06-20T08:38:12.961Z,40.74
2019-06-20T08:40:42.297Z,41.77
2019-06-20T08:43:11.817Z,45.23
2019-06-20T08:45:48.660Z,41.80
2019-06-20T08:48:19.670Z,35.19
2019-06-20T08:50:48.940Z,37.09
2019-06-20T08:53:19.221Z,36.97
2019-06-20T08:55:50.169Z,38.39
2019-06-20T08:58:19.458Z,36.70
2019-06-20T09:00:48.897Z,37.02
2019-06-20T09:03:29.474Z,36.72
2019-06-20T09:05:59.738Z,35.89
2019-06-20T09:08:29.133Z,35.94
2019-06-20T09:10:59.548Z,35.31
2019-06-20T09:13:29.594Z,34.46
2019-06-20T09:16:00.924Z,37.54
2019-06-20T09:18:30.538Z,37.52
2019-06-20T09:21:00.270Z,42.21
2019-06-20T09:23:29.732Z,41.10
2019-06-20T09:25:59.640Z,39.32
2019-06-20T09:28:29.026Z,42.06
2019-06-20T09:30:59.448Z,45.41
2019-06-20T09:33:28.710Z,46.82
2019-06-20T09:35:59.563Z,48.46
2019-06-20T09:38:33.380Z,48.13
2019-06-20T09:41:04.207Z,48.88
2019-06-20T09:43:34.696Z,48.37
2019-06-20T09:46:04.939Z,47.33
2019-06-20T09:48:34.342Z,48.49
2019-06-20T09:51:03.625Z,49.92
2019-06-20T09:53:32.928Z,49.76
2019-06-20T09:56:02.404Z,47.79
2019-06-20T09:58:32.458Z,47.90
2019-06-20T10:01:01.750Z,49.54
2019-06-20T10:03:31.295Z,49.62
2019-06-20T10:06:00.682Z,50.16
2019-06-20T10:08:29.965Z,50.35
2019-06-20T10:10:59.280Z,48.58
2019-06-20T10:13:32.383Z,48.44
2019-06-20T10:16:00.011Z,49.75
2019-06-20T10:18:29.378Z,51.27
2019-06-20T10:20:58.687Z,48.02
2019-06-20T10:23:27.964Z,48.80
2019-06-20T10:25:58.281Z,49.90
2019-06-20T10:28:29.359Z,49.66
2019-06-20T10:30:59.902Z,47.66
2019-06-20T10:33:29.462Z,47.31
2019-06-20T10:36:00.299Z,45.18
2019-06-20T10:38:29.995Z,44.92
2019-06-20T10:41:15.376Z,44.20
2019-06-20T10:43:45.817Z,45.80
2019-06-20T10:46:16.558Z,46.24
2019-06-20T10:48:47.994Z,48.31
2019-06-20T10:51:36.339Z,47.91
2019-06-20T10:54:06.295Z,46.53
2019-06-20T10:56:35.578Z,47.43
2019-06-20T10:59:05.100Z,48.90
2019-06-20T11:01:34.427Z,48.21
2019-06-20T11:04:03.771Z,47.29
2019-06-20T11:06:36.520Z,47.06
2019-06-20T11:09:09.438Z,47.89
2019-06-20T11:11:40.158Z,46.85
2019-06-20T11:14:10.339Z,48.28
2019-06-20T11:16:40.480Z,46.67
2019-06-20T11:19:10.684Z,46.13
2019-06-20T11:21:41.582Z,46.64
2019-06-20T11:24:10.993Z,45.76
2019-06-20T11:26:43.071Z,46.21
2019-06-20T11:29:12.493Z,45.85
2019-06-20T11:31:45.948Z,46.21
2019-06-20T11:34:12.848Z,47.90
2019-06-20T11:36:45.097Z,48.60
2019-06-20T11:39:14.511Z,48.76
2019-06-20T11:41:43.822Z,48.49
2019-06-20T11:44:13.107Z,47.85
2019-06-20T11:46:42.669Z,46.27
2019-06-20T11:49:11.975Z,44.97
2019-06-20T11:51:41.904Z,44.48
2019-06-20T11:54:11.337Z,45.31
2019-06-20T11:56:40.864Z,44.06
2019-06-20T11:59:10.181Z,44.79
2019-06-20T12:01:40.071Z,46.37
2019-06-20T12:04:16.056Z,46.20
2019-06-20T12:06:47.159Z,45.51
2019-06-20T12:09:16.561Z,46.52
2019-06-20T12:11:46.758Z,46.39
2019-06-20T12:14:16.218Z,44.98
2019-06-20T12:16:46.443Z,45.60
2019-06-20T12:19:15.841Z,47.05
2019-06-20T12:21:45.130Z,47.80
2019-06-20T12:24:14.396Z,48.89
2019-06-20T12:26:44.403Z,48.84
2019-06-20T12:29:14.859Z,49.50
2019-06-20T12:31:45.570Z,51.83
2019-06-20T12:34:15.218Z,51.44
2019-06-20T12:36:44.491Z,53.80
2019-06-20T12:39:13.794Z,50.88
2019-06-20T12:41:43.199Z,53.07
2019-06-20T12:44:12.464Z,52.33
2019-06-20T12:46:44.797Z,49.18
2019-06-20T12:49:14.140Z,48.89
2019-06-20T12:51:44.773Z,49.61
2019-06-20T12:54:14.114Z,49.48
2019-06-20T12:56:44.033Z,50.61
2019-06-20T12:59:13.391Z,49.44
2019-06-20T13:01:45.691Z,48.58
2019-06-20T13:04:13.692Z,48.18
2019-06-20T13:06:44.355Z,47.89
2019-06-20T13:09:13.655Z,47.39
2019-06-20T13:11:42.977Z,47.42
2019-06-20T13:14:12.278Z,47.20
2019-06-20T13:16:43.095Z,46.73
2019-06-20T13:19:12.378Z,47.64
2019-06-20T13:21:42.053Z,48.28
2019-06-20T13:24:11.481Z,46.77
2019-06-20T13:26:42.333Z,47.66
2019-06-20T13:29:11.751Z,46.99
2019-06-20T13:31:56.474Z,47.48
2019-06-20T13:34:12.369Z,47.12
2019-06-20T13:36:43.198Z,47.08
2019-06-20T13:39:12.520Z,47.49
2019-06-20T13:41:43.088Z,47.66
2019-06-20T13:44:14.864Z,47.85
2019-06-20T13:46:46.460Z,47.10
2019-06-20T13:49:15.876Z,46.98
2019-06-20T13:51:45.889Z,47.72
2019-06-20T13:54:15.267Z,48.54
2019-06-20T13:56:45.673Z,48.62
2019-06-20T13:59:14.943Z,49.92
2019-06-20T14:01:46.133Z,49.67
2019-06-20T14:04:15.266Z,50.73
2019-06-20T14:06:45.494Z,50.77
2019-06-20T14:09:14.926Z,50.74
2019-06-20T14:11:45.406Z,49.23
2019-06-20T14:14:14.715Z,51.02
2019-06-20T14:16:45.770Z,51.61
2019-06-20T14:19:15.076Z,52.17
2019-06-20T14:21:45.349Z,52.82
2019-06-20T14:24:14.898Z,54.19
2019-06-20T14:26:46.279Z,57.99
2019-06-20T14:29:15.503Z,59.67
2019-06-20T14:31:45.520Z,60.99
2019-06-20T14:34:14.976Z,64.79
2019-06-20T14:36:44.748Z,67.69
2019-06-20T14:39:15.596Z,70.88
2019-06-20T14:41:44.872Z,72.22
2019-06-20T14:44:14.170Z,73.27
2019-06-20T14:46:43.434Z,73.97
2019-06-20T14:49:12.728Z,75.15
2019-06-20T14:51:42.022Z,75.31
2019-06-20T14:54:12.397Z,76.32
2019-06-20T14:56:41.734Z,76.69
2019-06-20T14:59:11.000Z,75.37
2019-06-20T15:01:40.293Z,76.54
2019-06-20T15:04:09.558Z,73.90
2019-06-20T15:06:38.841Z,73.87
2019-06-20T15:09:10.987Z,74.41
2019-06-20T15:11:40.289Z,75.14
2019-06-20T15:14:09.556Z,74.09
2019-06-20T15:16:38.855Z,75.42
2019-06-20T15:19:08.184Z,74.44
2019-06-20T15:21:37.570Z,74.37
2019-06-20T15:24:06.871Z,74.65
2019-06-20T15:26:36.182Z,72.58
2019-06-20T15:29:07.286Z,73.67
2019-06-20T15:31:36.589Z,72.96
2019-06-20T15:34:06.983Z,72.81
2019-06-20T15:36:36.271Z,73.52
2019-06-20T15:39:07.197Z,72.48
2019-06-20T15:41:36.472Z,70.86
2019-06-20T15:44:05.977Z,69.41
2019-06-20T15:46:35.261Z,71.78
2019-06-20T15:49:15.761Z,70.51
2019-06-20T15:51:35.570Z,72.70
2019-06-20T15:54:06.072Z,72.91
2019-06-20T15:56:35.376Z,71.70
2019-06-20T15:59:04.728Z,70.56
2019-06-20T16:01:33.991Z,69.95
2019-06-20T16:04:03.290Z,69.73
2019-06-20T16:06:32.620Z,70.42
2019-06-20T16:09:01.916Z,69.86
2019-06-20T16:11:31.213Z,68.64
2019-06-20T16:14:00.502Z,68.10
2019-06-20T16:16:29.877Z,68.48
2019-06-20T16:18:59.212Z,69.33
2019-06-20T16:21:28.512Z,67.79
2019-06-20T16:23:57.954Z,68.07
2019-06-20T16:26:27.262Z,68.85
2019-06-20T16:28:56.555Z,70.32
2019-06-20T16:31:34.661Z,70.26
2019-06-20T16:34:03.970Z,68.15
2019-06-20T16:36:33.658Z,69.06
2019-06-20T16:39:02.924Z,69.01
2019-06-20T16:41:32.249Z,70.26
2019-06-20T16:44:01.548Z,69.55
2019-06-20T16:46:30.883Z,69.40
2019-06-20T16:49:01.980Z,70.11
2019-06-20T16:51:31.323Z,70.63
2019-06-20T16:54:01.604Z,69.86
2019-06-20T16:56:47.731Z,70.96
2019-06-20T16:59:17.015Z,72.31
2019-06-20T17:01:46.278Z,71.79
2019-06-20T17:04:15.551Z,70.33
2019-06-20T17:06:44.814Z,70.20
2019-06-20T17:09:14.157Z,70.04
2019-06-20T17:11:51.045Z,69.57
2019-06-20T17:14:28.764Z,68.56
2019-06-20T17:16:58.036Z,69.13
2019-06-20T17:19:27.312Z,68.34
2019-06-20T17:21:56.632Z,67.31
2019-06-20T17:24:25.880Z,68.34
2019-06-20T17:26:56.233Z,68.66
2019-06-20T17:29:25.536Z,67.65
2019-06-20T17:31:57.418Z,68.34
2019-06-20T17:34:25.950Z,67.55
2019-06-20T17:36:55.328Z,67.13
2019-06-20T17:39:24.812Z,67.25
2019-06-20T17:41:55.402Z,68.53
2019-06-20T17:44:27.519Z,68.21
2019-06-20T17:46:57.060Z,69.34
2019-06-20T17:49:26.764Z,68.43
2019-06-20T17:51:56.067Z,69.28
2019-06-20T17:54:25.424Z,69.15
2019-06-20T17:56:55.825Z,69.34
2019-06-20T17:59:25.235Z,70.35
2019-06-20T18:01:54.518Z,70.21
2019-06-20T18:04:26.694Z,70.07
2019-06-20T18:06:54.796Z,70.02
2019-06-20T18:09:24.240Z,69.67
2019-06-20T18:11:53.530Z,70.09
2019-06-20T18:14:23.977Z,71.13
2019-06-20T18:16:53.278Z,70.98
2019-06-20T18:19:29.709Z,71.13
2019-06-20T18:21:58.201Z,72.31
2019-06-20T18:24:27.503Z,72.14
2019-06-20T18:26:56.843Z,72.34
2019-06-20T18:29:26.141Z,73.41
2019-06-20T18:31:55.439Z,73.70
2019-06-20T18:34:29.983Z,73.84
2019-06-20T18:36:55.749Z,74.59
2019-06-20T18:39:25.005Z,75.00
2019-06-20T18:41:55.254Z,75.20
2019-06-20T18:44:24.744Z,75.94
2019-06-20T18:46:56.345Z,75.66
2019-06-20T18:49:25.650Z,76.19
2019-06-20T18:51:54.909Z,76.32
2019-06-20T18:54:24.414Z,76.36
2019-06-20T18:56:54.867Z,76.53
2019-06-20T18:59:24.199Z,76.83
2019-06-20T19:01:56.172Z,77.66
2019-06-20T19:04:25.494Z,77.02
2019-06-20T19:06:54.791Z,77.06
2019-06-20T19:09:24.085Z,77.00
2019-06-20T19:11:53.525Z,77.62
2019-06-20T19:14:22.835Z,77.11
2019-06-20T19:16:52.861Z,77.55
2019-06-20T19:19:22.180Z,78.51
2019-06-20T19:21:52.276Z,79.32
2019-06-20T19:24:21.550Z,79.94
2019-06-20T19:26:52.633Z,80.29
2019-06-20T19:29:23.238Z,80.23
2019-06-20T19:31:56.392Z,80.25
2019-06-20T19:34:26.018Z,79.55
2019-06-20T19:36:55.362Z,79.24
2019-06-20T19:39:28.025Z,79.04
2019-06-20T19:42:20.411Z,79.23
2019-06-20T19:44:47.881Z,80.21
2019-06-20T19:47:20.894Z,80.11
2019-06-20T19:49:55.652Z,80.90
2019-06-20T19:52:28.203Z,80.86
2019-06-20T19:55:01.961Z,80.85
2019-06-20T19:57:34.745Z,80.68
2019-06-20T20:00:18.544Z,81.11
2019-06-20T20:02:51.249Z,81.25
2019-06-20T20:05:20.681Z,81.06
2019-06-20T20:07:50.166Z,81.47
2019-06-20T20:10:28.314Z,81.22
2019-06-20T20:13:00.175Z,81.03
2019-06-20T20:15:29.576Z,81.25
2019-06-20T20:17:58.879Z,81.39
2019-06-20T20:20:28.468Z,81.30
2019-06-20T20:23:07.962Z,81.65
2019-06-20T20:25:37.789Z,81.16
2019-06-20T20:28:07.082Z,81.54
2019-06-20T20:30:36.357Z,82.13
2019-06-20T20:33:05.993Z,82.12
2019-06-20T20:35:36.133Z,82.05
2019-06-20T20:38:05.992Z,82.04
2019-06-20T20:40:35.246Z,82.14
2019-06-20T20:43:04.661Z,81.94
2019-06-20T20:45:33.994Z,81.98
2019-06-20T20:48:03.272Z,82.16
2019-06-20T20:50:32.630Z,81.80
2019-06-20T20:53:01.901Z,81.34
2019-06-20T20:55:31.198Z,81.33
2019-06-20T20:58:00.487Z,81.94
2019-06-20T21:00:35.124Z,82.45
2019-06-20T21:03:07.342Z,82.32
2019-06-20T21:05:50.665Z,82.65
2019-06-20T21:08:08.548Z,82.79
2019-06-20T21:10:37.860Z,82.50
2019-06-20T21:13:07.164Z,82.45
2019-06-20T21:15:36.468Z,82.87
2019-06-20T21:18:05.758Z,82.87
2019-06-20T21:20:35.026Z,83.37
2019-06-20T21:23:04.314Z,83.65
2019-06-20T21:25:33.576Z,83.77
2019-06-20T21:28:02.897Z,83.81
2019-06-20T21:30:32.501Z,83.65
2019-06-20T21:33:03.816Z,83.55
2019-06-20T21:35:33.507Z,84.04
2019-06-20T21:38:03.598Z,84.50
2019-06-20T21:40:32.877Z,84.36
2019-06-20T21:43:02.141Z,84.25
2019-06-20T21:45:33.332Z,84.28
2019-06-20T21:48:02.623Z,84.23
2019-06-20T21:50:32.835Z,84.17
2019-06-20T21:53:02.111Z,84.40
2019-06-20T21:55:31.386Z,84.97
2019-06-20T21:58:00.755Z,84.63
2019-06-20T22:00:39.066Z,85.75
2019-06-20T22:03:09.336Z,86.13
2019-06-20T22:05:40.246Z,86.33
2019-06-20T22:08:10.002Z,86.20
2019-06-20T22:10:39.467Z,85.81
2019-06-20T22:13:08.828Z,85.68
2019-06-20T22:15:39.360Z,85.80
2019-06-20T22:18:09.027Z,86.16
2019-06-20T22:20:38.870Z,85.97
2019-06-20T22:23:08.142Z,85.79
2019-06-20T22:25:38.223Z,85.53
2019-06-20T22:28:14.760Z,85.18
2019-06-20T22:30:47.999Z,85.22
2019-06-20T22:33:17.260Z,85.02
2019-06-20T22:35:46.656Z,84.87
2019-06-20T22:38:15.902Z,84.79
2019-06-20T22:40:45.496Z,84.40
2019-06-20T22:43:14.807Z,83.71
2019-06-20T22:45:44.225Z,83.69
2019-06-20T22:48:13.976Z,83.77
2019-06-20T22:50:43.480Z,83.70
2019-06-20T22:53:12.799Z,83.29
2019-06-20T22:55:42.132Z,83.51
2019-06-20T22:58:12.631Z,84.09
2019-06-20T23:00:41.943Z,84.62
2019-06-20T23:03:11.286Z,84.71
2019-06-20T23:05:40.683Z,84.68
2019-06-20T23:08:22.746Z,85.27
2019-06-20T23:10:52.043Z,84.93
2019-06-20T23:13:21.509Z,84.65
2019-06-20T23:15:50.788Z,84.49
2019-06-20T23:18:20.090Z,84.75
2019-06-20T23:21:03.993Z,84.98
2019-06-20T23:23:20.469Z,85.08
2019-06-20T23:25:52.278Z,85.15
2019-06-20T23:28:23.074Z,85.15
2019-06-20T23:30:52.458Z,86.36
2019-06-20T23:33:21.727Z,86.36
2019-06-20T23:35:51.019Z,86.24
2019-06-20T23:38:20.321Z,86.09
2019-06-20T23:40:49.617Z,86.43
2019-06-20T23:43:18.925Z,86.87
2019-06-20T23:45:48.264Z,86.54
2019-06-20T23:48:17.482Z,86.54
2019-06-20T23:50:46.890Z,87.18
2019-06-20T23:53:20.901Z,87.42
2019-06-20T23:55:50.211Z,87.64
2019-06-20T23:58:19.490Z,88.73
